Time;durP1;ratioP1;P1;durP2;ratioP2;P2;SDS_P1;SDS_P2;PMS_P1;PMS_P2;Temp;Humidity;BMP_temperature;BMP_pressure;BME280_temperature;BME280_humidity;BME280_pressure;Samples;Min_cycle;Max_cycle;Signal;HPM_P1;HPM_P2
2021/12/14 00:00:17;;;;;;;27.73;15.57;;;10.10;99.90;;;;;;5131525;27;20428;-81
2021/12/14 00:02:45;;;;;;;28.25;15.23;;;10.10;99.90;;;;;;5113202;27;20491;-81
2021/12/14 00:05:13;;;;;;;25.20;14.85;;;10.10;99.90;;;;;;5114346;28;20494;-81
2021/12/14 00:07:40;;;;;;;28.70;14.68;;;10.10;99.90;;;;;;5097299;28;20086;-81
2021/12/14 00:11:09;;;;;;;29.35;16.23;;;10.00;99.90;;;;;;5149314;27;20070;-81
2021/12/14 00:13:08;;;;;;;28.23;17.25;;;10.10;99.90;;;;;;5105546;28;20055;-81
2021/12/14 00:15:34;;;;;;;28.60;16.48;;;10.30;99.90;;;;;;5114384;28;20051;-81
2021/12/14 00:18:04;;;;;;;25.73;15.20;;;10.30;99.90;;;;;;5149482;27;20047;-81
2021/12/14 00:20:40;;;;;;;30.20;17.00;;;10.20;99.90;;;;;;5148971;27;20043;-81
2021/12/14 00:25:42;;;;;;;28.83;16.58;;;10.30;99.90;;;;;;5147539;27;20542;-81
2021/12/14 00:28:22;;;;;;;32.25;18.02;;;10.30;99.90;;;;;;5114282;28;20048;-81
2021/12/14 00:30:50;;;;;;;30.67;17.50;;;10.20;99.90;;;;;;5114689;28;20387;-81
2021/12/14 00:33:20;;;;;;;30.77;17.80;;;10.10;99.90;;;;;;5114462;28;20043;-81
2021/12/14 00:35:48;;;;;;;25.70;15.35;;;10.00;99.90;;;;;;5097181;28;20135;-80
2021/12/14 00:38:18;;;;;;;30.52;16.55;;;10.00;99.90;;;;;;5096803;28;20048;-81
2021/12/14 00:40:49;;;;;;;27.35;15.77;;;9.90;99.90;;;;;;5114067;28;20085;-81
2021/12/14 00:43:15;;;;;;;29.33;16.92;;;9.90;99.90;;;;;;5112819;28;20059;-81
2021/12/14 00:45:43;;;;;;;29.25;16.77;;;9.90;99.90;;;;;;5130895;27;20047;-81
2021/12/14 00:48:10;;;;;;;26.55;16.25;;;10.00;99.90;;;;;;5148388;27;20048;-81
2021/12/14 00:50:40;;;;;;;24.25;15.98;;;10.00;99.90;;;;;;5096967;28;20044;-81
2021/12/14 00:53:05;;;;;;;29.13;14.77;;;10.00;99.90;;;;;;5148111;27;20372;-81
2021/12/14 00:55:39;;;;;;;28.30;15.13;;;10.00;99.90;;;;;;5148200;27;20050;-81
2021/12/14 00:58:06;;;;;;;24.05;14.60;;;9.90;99.90;;;;;;5096943;28;20043;-81
2021/12/14 01:00:37;;;;;;;22.63;14.48;;;9.90;99.90;;;;;;5113374;28;20134;-81
2021/12/14 01:03:03;;;;;;;25.80;15.07;;;9.90;99.90;;;;;;5113429;28;20104;-81
2021/12/14 01:05:34;;;;;;;27.55;15.13;;;10.00;99.90;;;;;;5113372;28;20086;-81
2021/12/14 01:08:03;;;;;;;24.95;14.90;;;9.90;99.90;;;;;;5096354;28;20478;-81
2021/12/14 01:10:37;;;;;;;23.98;14.80;;;10.00;99.90;;;;;;5113347;28;20479;-81
2021/12/14 01:13:06;;;;;;;26.77;15.20;;;10.10;99.90;;;;;;5130232;27;20091;-81
2021/12/14 01:16:01;;;;;;;32.25;15.70;;;10.00;99.90;;;;;;5113017;28;20494;-81
2021/12/14 01:18:46;;;;;;;27.95;15.43;;;10.00;99.90;;;;;;5130505;27;20077;-81
2021/12/14 01:21:45;;;;;;;27.33;16.13;;;10.10;99.90;;;;;;5096161;28;20043;-81
2021/12/14 01:24:42;;;;;;;26.75;15.90;;;10.10;99.90;;;;;;5113139;28;20047;-81
2021/12/14 01:27:14;;;;;;;24.90;15.57;;;10.10;99.90;;;;;;5113113;28;20039;-81
2021/12/14 01:29:42;;;;;;;29.42;17.48;;;10.00;99.90;;;;;;5130143;27;20078;-81
2021/12/14 01:32:09;;;;;;;27.58;16.05;;;10.10;99.90;;;;;;5147434;27;20048;-81
2021/12/14 01:34:36;;;;;;;24.60;15.70;;;10.00;99.90;;;;;;5147206;27;20043;-81
2021/12/14 01:37:08;;;;;;;25.77;15.25;;;10.00;99.90;;;;;;5095740;28;20088;-81
2021/12/14 01:42:06;;;;;;;28.98;16.58;;;10.10;99.90;;;;;;5147158;27;20113;-81
2021/12/14 01:45:06;;;;;;;28.80;16.33;;;10.10;99.90;;;;;;5147174;27;20138;-81
2021/12/14 01:47:37;;;;;;;32.92;18.25;;;10.00;99.90;;;;;;5073407;28;20052;-81
2021/12/14 01:50:06;;;;;;;30.80;18.38;;;10.00;99.90;;;;;;5147464;27;20444;-81
2021/12/14 01:52:33;;;;;;;26.27;16.20;;;9.90;99.90;;;;;;5112757;28;20047;-81
2021/12/14 01:55:13;;;;;;;32.17;17.73;;;9.90;99.90;;;;;;5113210;28;20063;-81
2021/12/14 01:57:40;;;;;;;31.13;17.27;;;9.90;99.90;;;;;;5146927;27;20048;-81
2021/12/14 02:00:15;;;;;;;31.50;18.48;;;9.90;99.90;;;;;;5129374;28;20039;-81
2021/12/14 02:02:44;;;;;;;29.50;17.13;;;9.90;99.90;;;;;;5112884;28;20395;-81
2021/12/14 02:05:30;;;;;;;30.98;17.52;;;9.90;99.90;;;;;;5112800;28;20102;-81
2021/12/14 02:07:59;;;;;;;33.92;17.92;;;9.90;99.90;;;;;;5112774;28;20145;-80
2021/12/14 02:10:31;;;;;;;32.83;18.17;;;9.80;99.90;;;;;;5112608;28;20147;-81
2021/12/14 02:12:57;;;;;;;28.80;16.45;;;9.80;99.90;;;;;;5095625;28;20051;-81
2021/12/14 02:15:27;;;;;;;28.13;17.88;;;9.80;99.90;;;;;;5095731;28;20109;-81
2021/12/14 02:17:56;;;;;;;33.53;19.10;;;9.90;99.90;;;;;;5112701;28;20135;-81
2021/12/14 02:20:26;;;;;;;31.63;17.80;;;9.90;99.90;;;;;;5147053;27;20077;-81
2021/12/14 02:22:53;;;;;;;31.30;18.38;;;9.90;99.90;;;;;;5095301;28;20126;-81
2021/12/14 02:25:19;;;;;;;32.63;18.80;;;9.90;99.90;;;;;;5112551;28;20249;-81
2021/12/14 02:27:50;;;;;;;36.00;19.92;;;9.90;99.90;;;;;;5112377;28;20039;-81
2021/12/14 02:30:23;;;;;;;35.58;19.23;;;9.90;99.90;;;;;;5096118;28;20051;-81
2021/12/14 02:32:49;;;;;;;34.08;19.35;;;9.80;99.90;;;;;;5112581;28;20544;-81
2021/12/14 02:35:19;;;;;;;39.20;21.50;;;9.80;99.90;;;;;;5112295;28;20470;-81
2021/12/14 02:37:49;;;;;;;39.00;19.67;;;9.80;99.90;;;;;;5112495;28;20130;-81
2021/12/14 02:40:20;;;;;;;39.13;20.98;;;9.70;99.90;;;;;;5147274;27;20044;-81
2021/12/14 02:42:51;;;;;;;38.17;21.27;;;9.80;99.90;;;;;;5111545;28;20503;-81
2021/12/14 02:45:22;;;;;;;37.80;21.77;;;9.80;99.90;;;;;;5112529;28;20051;-81
2021/12/14 02:47:48;;;;;;;37.40;22.52;;;9.70;99.90;;;;;;5112195;28;20039;-81
2021/12/14 02:50:14;;;;;;;40.53;22.88;;;9.70;99.90;;;;;;5115076;28;20040;-81
2021/12/14 02:52:40;;;;;;;43.33;24.08;;;9.70;99.90;;;;;;5133500;27;20057;-81
2021/12/14 02:55:10;;;;;;;40.58;22.98;;;9.70;99.90;;;;;;5132940;27;20077;-81
2021/12/14 02:57:39;;;;;;;43.42;23.98;;;9.70;99.90;;;;;;5150280;27;20044;-81
2021/12/14 03:00:13;;;;;;;43.25;23.10;;;9.80;99.90;;;;;;5115927;28;20047;-81
2021/12/14 03:02:40;;;;;;;49.08;24.13;;;9.70;99.90;;;;;;5115842;28;20482;-81
2021/12/14 03:05:21;;;;;;;45.97;25.17;;;9.70;99.90;;;;;;5099081;28;20053;-81
2021/12/14 03:07:52;;;;;;;47.05;24.95;;;9.70;99.90;;;;;;5133075;27;20062;-81
2021/12/14 03:10:39;;;;;;;43.22;23.48;;;9.70;99.90;;;;;;5115893;28;20480;-81
2021/12/14 03:13:09;;;;;;;47.95;25.48;;;9.70;99.90;;;;;;5149945;27;20052;-81
2021/12/14 03:15:47;;;;;;;41.50;23.80;;;9.70;99.90;;;;;;5115633;28;20047;-81
2021/12/14 03:18:18;;;;;;;42.30;23.95;;;9.60;99.90;;;;;;5098669;28;20040;-81
2021/12/14 03:20:52;;;;;;;45.20;24.00;;;9.60;99.90;;;;;;5115653;28;20062;-80
2021/12/14 03:23:31;;;;;;;46.30;25.70;;;9.60;99.90;;;;;;5114948;28;20043;-80
2021/12/14 03:26:01;;;;;;;43.72;23.77;;;9.70;99.90;;;;;;5115384;28;20051;-81
2021/12/14 03:28:29;;;;;;;42.75;23.50;;;9.70;99.90;;;;;;5098265;28;20083;-81
2021/12/14 03:31:00;;;;;;;49.50;25.38;;;9.70;99.90;;;;;;5115411;28;20047;-81
2021/12/14 03:33:30;;;;;;;46.05;24.70;;;9.70;99.90;;;;;;5149400;27;20054;-81
2021/12/14 03:36:05;;;;;;;43.95;23.67;;;9.60;99.90;;;;;;5099015;28;20130;-81
2021/12/14 03:38:46;;;;;;;48.35;25.58;;;9.60;99.90;;;;;;5115167;28;20043;-81
2021/12/14 03:41:24;;;;;;;46.25;25.48;;;9.60;99.90;;;;;;5115129;28;20055;-81
2021/12/14 03:44:00;;;;;;;49.20;25.88;;;9.60;99.90;;;;;;5097559;28;20059;-81
2021/12/14 03:46:32;;;;;;;;;;;9.60;99.90;;;;;;5115636;28;20529;-81
2021/12/14 03:48:59;;;;;;;46.90;24.77;;;9.60;99.90;;;;;;5115172;28;19919;-81
2021/12/14 03:51:25;;;;;;;50.33;25.85;;;9.60;99.90;;;;;;5149239;27;20039;-81
2021/12/14 03:53:53;;;;;;;50.13;26.75;;;9.70;99.90;;;;;;5131942;27;20036;-81
2021/12/14 03:56:20;;;;;;;48.30;25.77;;;9.70;99.90;;;;;;5114320;28;20138;-80
2021/12/14 03:58:47;;;;;;;46.83;25.17;;;9.60;99.90;;;;;;5097587;28;20083;-81
2021/12/14 04:01:22;;;;;;;52.30;25.77;;;9.60;99.90;;;;;;5097733;28;20111;-81
2021/12/14 04:03:52;;;;;;;51.15;25.38;;;9.50;99.90;;;;;;5149235;27;20055;-81
2021/12/14 04:06:19;;;;;;;45.38;25.40;;;9.60;99.90;;;;;;5114837;28;20052;-81
2021/12/14 04:08:45;;;;;;;51.40;26.63;;;9.60;99.90;;;;;;5097427;28;20039;-81
2021/12/14 04:11:13;;;;;;;55.03;26.33;;;9.70;99.90;;;;;;5114247;28;20047;-81
2021/12/14 04:13:43;;;;;;;49.92;25.92;;;9.70;99.90;;;;;;5096808;28;20451;-81
2021/12/14 04:16:13;;;;;;;48.50;26.65;;;9.70;99.90;;;;;;5148914;27;20040;-81
2021/12/14 04:18:38;;;;;;;46.50;25.90;;;9.70;99.90;;;;;;5114861;28;20051;-81
2021/12/14 04:21:05;;;;;;;50.65;26.73;;;9.60;99.90;;;;;;5148446;27;20050;-81
2021/12/14 04:23:37;;;;;;;53.08;26.25;;;9.70;99.90;;;;;;5114444;28;20101;-80
2021/12/14 04:26:06;;;;;;;48.22;26.35;;;9.60;99.90;;;;;;5114412;28;20044;-80
2021/12/14 04:28:37;;;;;;;51.95;26.52;;;9.70;99.90;;;;;;5148481;27;20486;-81
2021/12/14 04:31:03;;;;;;;50.55;26.55;;;9.70;99.90;;;;;;5113740;28;20043;-81
2021/12/14 04:33:32;;;;;;;50.35;27.25;;;9.70;99.90;;;;;;5096938;28;20126;-81
2021/12/14 04:35:59;;;;;;;52.15;27.95;;;9.70;99.90;;;;;;5114001;28;20050;-81
2021/12/14 04:38:29;;;;;;;51.63;25.92;;;9.70;99.90;;;;;;5097059;28;20052;-80
2021/12/14 04:52:14;;;;;;;50.88;26.05;;;9.60;99.90;;;;;;5148544;27;20134;-80
2021/12/14 04:54:54;;;;;;;49.03;25.88;;;9.60;99.90;;;;;;5130496;27;20079;-80
2021/12/14 04:57:30;;;;;;;49.17;25.98;;;9.70;99.90;;;;;;5096583;28;20108;-81
2021/12/14 05:00:18;;;;;;;47.33;25.75;;;9.70;99.90;;;;;;5147714;27;20376;-81
2021/12/14 05:02:51;;;;;;;51.78;27.92;;;9.70;99.90;;;;;;5130492;27;20069;-81
2021/12/14 05:05:25;;;;;;;53.38;27.58;;;9.70;99.90;;;;;;5113135;28;20126;-80
2021/12/14 05:09:20;;;;;;;60.90;29.63;;;9.70;99.90;;;;;;5096261;28;20047;-81
2021/12/14 05:10:55;;;;;;;51.63;29.05;;;9.80;99.90;;;;;;5113645;28;20378;-81
2021/12/14 05:13:28;;;;;;;;;;;9.60;99.90;;;;;;5112903;28;20402;-81
2021/12/14 05:15:55;;;;;;;51.60;27.17;;;9.50;99.90;;;;;;5130574;27;20014;-81
2021/12/14 05:18:21;;;;;;;55.15;27.70;;;9.60;99.90;;;;;;5113270;28;20440;-81
2021/12/14 05:20:49;;;;;;;57.58;28.73;;;9.50;99.90;;;;;;5096152;28;20513;-80
2021/12/14 05:23:23;;;;;;;57.33;28.70;;;9.50;99.90;;;;;;5130144;27;20428;-80
2021/12/14 05:25:50;;;;;;;55.67;29.00;;;9.60;99.90;;;;;;5113068;28;20070;-80
2021/12/14 05:28:18;;;;;;;61.90;30.73;;;9.60;99.90;;;;;;5112821;28;20048;-81
2021/12/14 05:30:46;;;;;;;60.67;29.55;;;9.60;99.90;;;;;;5096050;28;20398;-81
2021/12/14 05:33:19;;;;;;;59.78;30.67;;;9.60;99.90;;;;;;5113079;28;20498;-80
2021/12/14 05:35:48;;;;;;;59.80;30.13;;;9.60;99.90;;;;;;5112930;28;20130;-81
2021/12/14 05:38:21;;;;;;;66.32;33.08;;;9.60;99.90;;;;;;5113225;28;20050;-81
2021/12/14 05:43:23;;;;;;;62.92;31.05;;;9.60;99.90;;;;;;5112285;28;20054;-81
2021/12/14 05:45:56;;;;;;;63.83;31.73;;;9.60;99.90;;;;;;5096674;28;20063;-80
2021/12/14 05:48:25;;;;;;;65.35;31.20;;;9.50;99.90;;;;;;5112958;28;20082;-81
2021/12/14 05:50:58;;;;;;;65.65;31.80;;;9.60;99.90;;;;;;5095803;28;20051;-81
2021/12/14 05:53:27;;;;;;;75.03;36.22;;;9.70;99.90;;;;;;5147065;27;20051;-81
2021/12/14 05:55:53;;;;;;;77.60;34.67;;;9.70;99.90;;;;;;5095726;28;20035;-81
2021/12/14 05:58:21;;;;;;;76.82;35.13;;;9.70;99.90;;;;;;5112852;28;20216;-81
2021/12/14 06:00:58;;;;;;;79.40;36.42;;;9.60;99.90;;;;;;5112834;28;20043;-81
2021/12/14 06:03:39;;;;;;;79.25;35.50;;;9.60;99.90;;;;;;5095814;28;20043;-81
2021/12/14 06:06:14;;;;;;;76.65;36.75;;;9.70;99.90;;;;;;5112952;28;20079;-81
2021/12/14 06:08:40;;;;;;;72.38;34.72;;;9.70;99.90;;;;;;5112701;28;20452;-80
2021/12/14 06:11:06;;;;;;;79.85;35.90;;;9.60;99.90;;;;;;5112776;28;20130;-81
2021/12/14 06:13:44;;;;;;;76.20;34.55;;;9.70;99.90;;;;;;5146433;27;20044;-81
2021/12/14 06:16:23;;;;;;;70.97;34.80;;;9.70;99.90;;;;;;5112561;28;20051;-81
2021/12/14 06:18:49;;;;;;;66.95;34.35;;;9.70;99.90;;;;;;5112467;28;20048;-81
2021/12/14 06:21:18;;;;;;;72.70;33.95;;;9.60;99.90;;;;;;5147099;27;20084;-80
2021/12/14 06:23:44;;;;;;;74.97;36.25;;;9.60;99.90;;;;;;5113103;28;20040;-81
2021/12/14 06:26:09;;;;;;;74.22;35.75;;;9.50;99.90;;;;;;5151451;27;20053;-81
2021/12/14 06:28:35;;;;;;;69.68;34.33;;;9.50;99.90;;;;;;5150847;27;20134;-81
2021/12/14 06:31:01;;;;;;;69.57;33.92;;;9.50;99.90;;;;;;5133766;27;20091;-81
2021/12/14 06:33:30;;;;;;;71.72;37.72;;;9.50;99.90;;;;;;5082684;28;20048;-81
2021/12/14 06:35:59;;;;;;;69.45;35.05;;;9.40;99.90;;;;;;5099393;28;20043;-81
2021/12/14 06:38:28;;;;;;;76.57;36.33;;;9.40;99.90;;;;;;5099937;28;20055;-81
2021/12/14 06:41:06;;;;;;;76.25;37.25;;;9.40;99.90;;;;;;5150651;27;20546;-81
2021/12/14 06:43:49;;;;;;;77.28;38.28;;;9.50;99.90;;;;;;5132554;27;20062;-81
2021/12/14 06:46:36;;;;;;;82.43;37.55;;;9.40;99.90;;;;;;5116511;28;20039;-81
2021/12/14 06:49:11;;;;;;;85.40;39.47;;;9.40;99.90;;;;;;5099035;28;20051;-81
2021/12/14 06:51:43;;;;;;;79.97;38.80;;;9.40;99.90;;;;;;5115992;28;20051;-81
2021/12/14 06:54:12;;;;;;;89.13;40.35;;;9.30;99.90;;;;;;5116298;28;20078;-81
2021/12/14 06:56:39;;;;;;;91.32;41.10;;;9.30;99.90;;;;;;5116085;28;20050;-81
2021/12/14 06:59:06;;;;;;;87.43;40.17;;;9.30;99.90;;;;;;5099006;28;20421;-81
2021/12/14 07:01:49;;;;;;;96.40;42.42;;;9.50;99.90;;;;;;5150336;27;20039;-81
2021/12/14 07:04:20;;;;;;;95.35;40.75;;;9.50;99.90;;;;;;5098707;28;20058;-81
2021/12/14 07:06:52;;;;;;;85.00;40.92;;;9.50;99.90;;;;;;5115880;28;20051;-81
2021/12/14 07:09:23;;;;;;;92.88;43.38;;;9.60;99.90;;;;;;5098669;28;20505;-81
2021/12/14 07:12:09;;;;;;;91.22;42.25;;;9.60;99.90;;;;;;5116006;28;20100;-84
2021/12/14 07:15:11;;;;;;;92.10;42.50;;;9.40;99.90;;;;;;5115073;28;20117;-73
2021/12/14 07:18:03;;;;;;;115.70;46.13;;;9.40;99.90;;;;;;5101697;28;20060;-72
2021/12/14 07:20:33;;;;;;;112.05;44.67;;;9.40;99.90;;;;;;5116520;28;20051;-71
2021/12/14 07:23:04;;;;;;;109.93;46.85;;;9.40;99.90;;;;;;5116227;28;20047;-72
2021/12/14 07:25:39;;;;;;;116.55;48.03;;;9.50;99.90;;;;;;5150487;27;20048;-72
2021/12/14 07:28:16;;;;;;;111.72;47.03;;;9.40;99.90;;;;;;5149866;27;20044;-71
2021/12/14 07:30:46;;;;;;;124.63;49.83;;;9.30;99.90;;;;;;5116404;28;20093;-72
2021/12/14 07:33:12;;;;;;;108.28;45.35;;;9.30;99.90;;;;;;5149758;27;20083;-73
2021/12/14 07:36:01;;;;;;;126.10;48.42;;;9.40;99.90;;;;;;5132067;27;20090;-72
2021/12/14 07:38:39;;;;;;;125.30;50.30;;;9.50;99.90;;;;;;5114380;28;20108;-72
2021/12/14 07:41:30;;;;;;;121.68;49.78;;;9.50;99.90;;;;;;5115189;28;20135;-72
2021/12/14 07:44:01;;;;;;;130.15;51.63;;;9.50;99.90;;;;;;5131798;27;20137;-72
2021/12/14 07:46:33;;;;;;;116.45;48.28;;;9.50;99.90;;;;;;5132165;27;20221;-72
2021/12/14 07:49:05;;;;;;;122.70;48.15;;;9.50;99.90;;;;;;5149288;27;20047;-72
2021/12/14 07:51:33;;;;;;;133.82;51.38;;;9.50;99.90;;;;;;5149271;27;20043;-72
2021/12/14 07:54:10;;;;;;;142.02;52.60;;;9.60;99.90;;;;;;5114741;28;20056;-72
2021/12/14 07:56:41;;;;;;;137.02;53.25;;;9.60;99.90;;;;;;5115603;27;20490;-72
2021/12/14 07:59:30;;;;;;;147.18;53.92;;;9.60;99.90;;;;;;5149825;27;20105;-72
2021/12/14 08:02:20;;;;;;;144.18;53.10;;;9.60;99.90;;;;;;5114841;28;20540;-72
2021/12/14 08:04:52;;;;;;;150.13;55.78;;;9.60;99.90;;;;;;5148772;27;20051;-72
2021/12/14 08:07:30;;;;;;;159.10;54.85;;;9.60;99.90;;;;;;5114976;28;20040;-72
2021/12/14 08:10:18;;;;;;;160.95;56.83;;;9.50;99.90;;;;;;5148916;27;20108;-71
2021/12/14 08:13:11;;;;;;;160.40;55.10;;;9.50;99.90;;;;;;5131802;27;20134;-72
2021/12/14 08:15:41;;;;;;;170.77;56.38;;;9.50;99.90;;;;;;5112541;28;20059;-72
2021/12/14 08:18:12;;;;;;;173.68;56.47;;;9.60;99.90;;;;;;5115244;28;20127;-72
2021/12/14 08:20:58;;;;;;;164.80;55.08;;;9.60;99.90;;;;;;5148855;27;20539;-71
2021/12/14 08:23:59;;;;;;;174.95;56.10;;;9.60;99.90;;;;;;5115050;28;20040;-72
2021/12/14 08:26:34;;;;;;;181.65;57.53;;;9.60;99.90;;;;;;5071071;28;20391;-71
2021/12/14 08:29:05;;;;;;;181.93;56.65;;;9.70;99.90;;;;;;5115181;28;20055;-71
2021/12/14 08:31:38;;;;;;;175.85;58.42;;;9.80;99.90;;;;;;5148541;27;20043;-71
2021/12/14 08:34:21;;;;;;;159.93;58.00;;;9.70;99.90;;;;;;5114188;28;20096;-71
2021/12/14 08:36:55;;;;;;;172.52;55.20;;;9.60;99.90;;;;;;5148542;27;20047;-72
2021/12/14 08:39:32;;;;;;;173.65;55.88;;;9.60;99.90;;;;;;5115127;27;20051;-72
2021/12/14 08:42:09;;;;;;;172.88;56.88;;;9.70;99.90;;;;;;5146492;27;20132;-72
2021/12/14 08:44:39;;;;;;;169.40;55.22;;;9.80;99.90;;;;;;5127436;27;20050;-75
2021/12/14 08:47:19;;;;;;;162.85;54.05;;;9.80;99.90;;;;;;5137721;27;20096;-74
2021/12/14 08:49:45;;;;;;;168.63;53.65;;;9.80;99.90;;;;;;5132649;27;20103;-74
2021/12/14 08:52:11;;;;;;;162.50;53.20;;;9.80;99.90;;;;;;5133849;27;20483;-74
2021/12/14 08:54:39;;;;;;;158.18;54.50;;;9.80;99.90;;;;;;5122776;27;20047;-75
2021/12/14 08:57:13;;;;;;;168.50;53.20;;;9.90;99.90;;;;;;5113952;27;20386;-73
2021/12/14 08:59:42;;;;;;;161.10;52.70;;;9.90;99.90;;;;;;5113312;28;20108;-76
2021/12/14 09:02:12;;;;;;;163.95;54.72;;;9.80;99.90;;;;;;5130088;27;20039;-73
2021/12/14 09:04:43;;;;;;;162.27;53.67;;;9.90;99.90;;;;;;5113155;28;20050;-73
2021/12/14 09:07:14;;;;;;;151.68;50.85;;;9.90;99.90;;;;;;5113199;28;20126;-74
2021/12/14 09:09:41;;;;;;;158.15;51.75;;;9.90;99.90;;;;;;5112661;28;20494;-77
2021/12/14 09:12:24;;;;;;;145.52;50.03;;;9.90;99.90;;;;;;5130576;27;20040;-73
2021/12/14 09:14:51;;;;;;;143.85;49.50;;;9.90;99.90;;;;;;5114081;27;20039;-74
2021/12/14 09:17:19;;;;;;;148.50;51.60;;;9.90;99.90;;;;;;5113018;28;20498;-75
2021/12/14 09:20:01;;;;;;;143.25;49.67;;;9.90;99.90;;;;;;5095696;28;20063;-75
2021/12/14 09:22:33;;;;;;;127.50;48.25;;;9.90;99.90;;;;;;5113669;28;20432;-75
2021/12/14 09:25:00;;;;;;;142.27;49.63;;;10.00;99.90;;;;;;5112898;28;20055;-74
2021/12/14 09:27:30;;;;;;;158.77;50.22;;;9.90;99.90;;;;;;5112762;28;20068;-74
2021/12/14 09:29:57;;;;;;;150.07;52.67;;;10.00;99.90;;;;;;5113230;28;20076;-78
2021/12/14 09:32:27;;;;;;;161.63;52.58;;;10.00;99.90;;;;;;5112742;28;20043;-75
2021/12/14 09:34:56;;;;;;;119.40;46.22;;;10.00;99.90;;;;;;5129315;27;20056;-74
2021/12/14 09:37:22;;;;;;;156.77;51.83;;;10.00;99.90;;;;;;5112352;28;20612;-74
2021/12/14 09:39:52;;;;;;;157.05;51.90;;;10.00;99.90;;;;;;5113716;28;20083;-75
2021/12/14 09:42:24;;;;;;;148.90;51.30;;;10.10;99.90;;;;;;5095021;28;20419;-74
2021/12/14 09:44:52;;;;;;;157.48;50.53;;;10.10;99.90;;;;;;5146356;27;20059;-73
2021/12/14 09:47:25;;;;;;;140.73;50.22;;;10.10;99.90;;;;;;5096153;28;20047;-72
2021/12/14 09:49:51;;;;;;;138.20;50.90;;;10.20;99.90;;;;;;5127152;28;20180;-74
2021/12/14 09:52:37;;;;;;;141.68;51.97;;;10.10;99.90;;;;;;5134226;28;20050;-73
2021/12/14 09:55:09;;;;;;;121.25;45.85;;;10.00;99.90;;;;;;5133082;27;20055;-73
2021/12/14 09:57:45;;;;;;;148.93;51.15;;;10.00;99.90;;;;;;5134506;27;20042;-73
2021/12/14 10:00:16;;;;;;;;;;;10.10;99.90;;;;;;5139282;27;20125;-73
2021/12/14 10:02:44;;;;;;;142.60;48.60;;;10.20;99.90;;;;;;5154762;27;19920;-73
2021/12/14 10:05:24;;;;;;;125.90;47.03;;;10.10;99.90;;;;;;5126147;27;20054;-73
2021/12/14 10:07:50;;;;;;;140.07;49.45;;;10.10;99.90;;;;;;5099414;28;20052;-74
2021/12/14 10:10:18;;;;;;;157.32;50.90;;;10.20;99.90;;;;;;5116772;28;20089;-73
2021/12/14 10:12:49;;;;;;;147.13;48.88;;;10.10;99.90;;;;;;5099676;28;20051;-73
2021/12/14 10:15:24;;;;;;;134.98;46.85;;;10.10;99.90;;;;;;5116061;28;20101;-73
2021/12/14 10:17:52;;;;;;;159.00;50.97;;;10.10;99.90;;;;;;5133296;27;20059;-73
2021/12/14 10:20:38;;;;;;;105.55;42.33;;;10.10;99.90;;;;;;5116101;28;20051;-73
2021/12/14 10:23:04;;;;;;;;;;;10.20;99.90;;;;;;5100487;28;20048;-73
2021/12/14 10:25:32;;;;;;;147.97;47.47;;;10.20;99.90;;;;;;5116153;28;19926;-73
2021/12/14 10:27:58;;;;;;;153.30;50.13;;;10.20;99.90;;;;;;5116061;28;20486;-73
2021/12/14 10:30:44;;;;;;;161.20;48.22;;;10.20;99.90;;;;;;5116275;28;20486;-73
2021/12/14 10:33:11;;;;;;;105.18;42.17;;;10.20;99.90;;;;;;5116335;28;20059;-84
2021/12/14 10:35:44;;;;;;;93.63;39.92;;;10.20;99.90;;;;;;5099243;28;20116;-84
2021/12/14 10:38:21;;;;;;;85.78;37.83;;;10.10;99.90;;;;;;5116421;27;20131;-84
2021/12/14 10:43:40;;;;;;;78.22;34.30;;;10.00;99.90;;;;;;5115116;28;20069;-84
2021/12/14 10:46:19;;;;;;;76.43;34.70;;;10.00;99.90;;;;;;5133133;27;20044;-84
2021/12/14 10:48:47;;;;;;;76.93;34.33;;;9.80;99.90;;;;;;5150687;27;20546;-84
2021/12/14 10:51:17;;;;;;;67.90;30.85;;;9.80;99.90;;;;;;5121240;27;20039;-84
2021/12/14 10:53:47;;;;;;;73.60;33.40;;;9.70;99.90;;;;;;5119574;27;20099;-86
2021/12/14 10:56:18;;;;;;;64.75;30.95;;;9.80;99.90;;;;;;5136689;27;20100;-83
2021/12/14 10:58:47;;;;;;;73.32;33.75;;;9.90;99.90;;;;;;5136443;27;20043;-74
2021/12/14 11:01:23;;;;;;;92.20;36.33;;;10.10;99.90;;;;;;5136535;27;20047;-74
2021/12/14 11:03:52;;;;;;;103.65;37.97;;;10.30;99.90;;;;;;5136583;27;20059;-74
2021/12/14 11:06:27;;;;;;;108.70;39.67;;;10.50;99.90;;;;;;5136448;27;20062;-73
2021/12/14 11:11:37;;;;;;;82.13;35.83;;;10.50;99.90;;;;;;5149165;27;20054;-74
2021/12/14 11:14:09;;;;;;;99.65;36.05;;;10.50;99.90;;;;;;5135476;27;20078;-75
2021/12/14 11:19:48;;;;;;;107.97;40.28;;;10.60;99.90;;;;;;5132282;27;20054;-73
2021/12/14 11:22:18;;;;;;;122.03;40.10;;;10.50;99.90;;;;;;5129596;27;20100;-73
2021/12/14 11:24:48;;;;;;;117.65;40.50;;;10.50;99.90;;;;;;5101600;28;20410;-73
2021/12/14 11:27:25;;;;;;;81.93;35.17;;;10.50;99.90;;;;;;5098012;28;20130;-73
2021/12/14 11:30:06;;;;;;;100.38;39.30;;;10.50;99.90;;;;;;5115247;28;20048;-73
2021/12/14 11:32:32;;;;;;;118.20;41.53;;;10.40;99.90;;;;;;5115529;28;20491;-72
2021/12/14 11:34:57;;;;;;;131.63;43.10;;;10.50;99.90;;;;;;5149484;27;20039;-70
2021/12/14 11:37:33;;;;;;;118.38;40.80;;;10.60;99.90;;;;;;5115892;28;20072;-71
2021/12/14 11:39:59;;;;;;;116.47;39.92;;;10.50;99.90;;;;;;5150191;27;20054;-70
2021/12/14 11:42:27;;;;;;;121.63;41.95;;;10.50;99.90;;;;;;5116013;28;20106;-71
2021/12/14 11:44:58;;;;;;;105.13;38.63;;;10.40;99.90;;;;;;5114690;28;20055;-70
2021/12/14 11:50:05;;;;;;;130.00;42.85;;;10.30;99.90;;;;;;5149233;27;20058;-69
2021/12/14 11:52:49;;;;;;;133.70;41.80;;;10.30;99.90;;;;;;5115885;28;20449;-69
2021/12/14 11:55:41;;;;;;;129.85;40.97;;;10.30;99.90;;;;;;5149391;27;20135;-71
2021/12/14 11:58:31;;;;;;;114.43;40.33;;;10.30;99.90;;;;;;5106753;27;20055;-71
2021/12/14 12:01:20;;;;;;;115.47;40.00;;;10.30;99.90;;;;;;5106433;28;20050;-71
2021/12/14 12:04:08;;;;;;;120.65;40.55;;;10.40;99.90;;;;;;5131918;27;20063;-71
2021/12/14 12:09:29;;;;;;;124.30;39.17;;;10.40;99.90;;;;;;5149526;27;20055;-71
2021/12/14 12:12:04;;;;;;;134.88;41.22;;;10.40;99.90;;;;;;5115634;28;20079;-71
2021/12/14 12:14:54;;;;;;;132.45;41.83;;;10.30;99.90;;;;;;5148307;27;20073;-71
2021/12/14 12:18:01;;;;;;;133.35;41.58;;;10.20;99.90;;;;;;5114168;28;20074;-72
2021/12/14 12:20:38;;;;;;;142.23;41.85;;;10.20;99.90;;;;;;5055941;28;20048;-71
2021/12/14 12:23:07;;;;;;;;;;;10.30;99.90;;;;;;5038783;28;20044;-71
2021/12/14 12:25:43;;;;;;;146.23;42.97;;;10.30;99.90;;;;;;5096378;28;19978;-71
2021/12/14 12:28:12;;;;;;;162.85;44.28;;;10.30;99.90;;;;;;5114411;28;20054;-71
2021/12/14 12:31:00;;;;;;;157.85;44.40;;;10.30;99.90;;;;;;5113890;28;20047;-71
2021/12/14 12:33:39;;;;;;;158.35;45.38;;;10.20;99.90;;;;;;5118368;28;20502;-74
2021/12/14 12:36:08;;;;;;;173.80;47.30;;;10.30;99.90;;;;;;5148712;27;20047;-73
2021/12/14 12:39:08;;;;;;;168.65;43.42;;;10.20;99.90;;;;;;5148473;27;20127;-73
2021/12/14 12:41:48;;;;;;;167.98;46.80;;;10.30;99.90;;;;;;5148362;27;20372;-70
2021/12/14 12:44:24;;;;;;;177.57;46.05;;;10.40;99.90;;;;;;5112862;28;20051;-71
2021/12/14 12:47:13;;;;;;;157.48;43.95;;;10.30;99.90;;;;;;5114961;28;20075;-71
2021/12/14 12:49:48;;;;;;;187.07;45.40;;;10.30;99.90;;;;;;5113462;28;20390;-71
2021/12/14 12:52:26;;;;;;;184.18;46.15;;;10.40;99.90;;;;;;5114970;28;20079;-71
2021/12/14 12:54:56;;;;;;;152.20;41.25;;;10.30;99.90;;;;;;5096984;28;20142;-71
2021/12/14 12:57:36;;;;;;;186.70;42.80;;;10.30;99.90;;;;;;5148015;27;20055;-71
2021/12/14 13:00:09;;;;;;;159.30;41.05;;;10.40;99.90;;;;;;5113654;28;20051;-71
2021/12/14 13:03:12;;;;;;;182.35;43.92;;;10.30;99.90;;;;;;5147851;27;20128;-71
2021/12/14 13:05:43;;;;;;;143.23;37.78;;;10.30;99.90;;;;;;5109903;28;20062;-71
2021/12/14 13:08:33;;;;;;;164.32;40.60;;;10.40;99.90;;;;;;5113527;28;20135;-71
2021/12/14 13:11:21;;;;;;;169.23;41.20;;;10.40;99.90;;;;;;5113311;28;20051;-71
2021/12/14 13:13:50;;;;;;;134.45;38.95;;;10.50;99.90;;;;;;5147411;27;20492;-71
2021/12/14 13:16:50;;;;;;;132.88;36.20;;;10.50;99.90;;;;;;5147836;27;20054;-71
2021/12/14 13:19:23;;;;;;;148.77;38.50;;;10.40;99.90;;;;;;5111180;28;20059;-71
2021/12/14 13:22:13;;;;;;;124.15;34.78;;;10.50;99.90;;;;;;5113003;28;20039;-71
2021/12/14 13:24:42;;;;;;;110.35;33.63;;;10.50;99.90;;;;;;5113222;28;20100;-71
2021/12/14 13:27:17;;;;;;;134.63;35.65;;;10.60;99.90;;;;;;5096113;28;20482;-71
2021/12/14 13:29:50;;;;;;;98.43;31.45;;;10.60;99.90;;;;;;5147611;27;20460;-71
2021/12/14 13:32:27;;;;;;;76.93;28.50;;;10.70;99.90;;;;;;5146994;27;20398;-71
2021/12/14 13:35:05;;;;;;;122.32;33.88;;;10.60;99.90;;;;;;5130586;27;20047;-71